Time;durP1;ratioP1;P1;durP2;ratioP2;P2;SDS_P1;SDS_P2;PMS_P1;PMS_P2;Temp;Humidity;BMP_temperature;BMP_pressure;BME280_temperature;BME280_humidity;BME280_pressure;Samples;Min_cycle;Max_cycle;Signal;HPM_P1;HPM_P2
2023/04/02 00:00:28;;;;;;;;;;;;;;;;;;5039371;28;20305;-81
2023/04/02 00:02:56;;;;;;;;;;;;;;;;;;5032702;28;19941;-81
2023/04/02 00:05:28;;;;;;;;;;;;;;;;;;5032535;28;19932;-80
2023/04/02 00:08:09;;;;;;;;;;;;;;;;;;5046447;28;19925;-81
2023/04/02 00:10:41;;;;;;;;;;;;;;;;;;5031333;28;19925;-81
2023/04/02 00:13:09;;;;;;;;;;;;;;;;;;5034040;28;20392;-81
2023/04/02 00:15:36;;;;;;;;;;;;;;;;;;5031429;28;19927;-81
2023/04/02 00:18:04;;;;;;;;;;;;;;;;;;5033792;28;19932;-81
2023/04/02 00:20:31;;;;;;;;;;;;;;;;;;5033331;28;20297;-81
2023/04/02 00:22:59;;;;;;;;;;;;;;;;;;5032503;28;19925;-81
2023/04/02 00:25:26;;;;;;;;;;;;;;;;;;5032219;28;19932;-80
2023/04/02 00:27:54;;;;;;;;;;;;;;;;;;5032659;28;20421;-80
2023/04/02 00:30:21;;;;;;;;;;;;;;;;;;5033694;28;19932;-81
2023/04/02 00:32:49;;;;;;;;;;;;;;;;;;5032010;28;19932;-80
2023/04/02 00:35:22;;;;;;;;;;;;;;;;;;5030231;28;19944;-80
2023/04/02 00:37:49;;;;;;;;;;;;;;;;;;5033455;28;19925;-81
2023/04/02 00:40:17;;;;;;;;;;;;;;;;;;5033207;28;19936;-80
2023/04/02 00:42:45;;;;;;;;;;;;;;;;;;5033141;28;20316;-80
2023/04/02 00:45:18;;;;;;;;;;;;;;;;;;5037581;28;19929;-80
2023/04/02 00:47:50;;;;;;;;;;;;;;;;;;5030611;28;19925;-80
2023/04/02 00:50:18;;;;;;;;;;;;;;;;;;5032973;28;19940;-80
2023/04/02 00:52:45;;;;;;;;;;;;;;;;;;5030964;28;19948;-81
2023/04/02 00:55:18;;;;;;;;;;;;;;;;;;5030708;28;19930;-80
2023/04/02 00:57:46;;;;;;;;;;;;;;;;;;5030678;28;19925;-81
2023/04/02 01:00:14;;;;;;;;;;;;;;;;;;5031584;28;19929;-80
2023/04/02 01:02:42;;;;;;;;;;;;;;;;;;5032823;28;19925;-81
2023/04/02 01:05:14;;;;;;;;;;;;;;;;;;5031609;28;19929;-80
2023/04/02 01:07:47;;;;;;;;;;;;;;;;;;5031314;28;19932;-80
2023/04/02 01:10:14;;;;;;;;;;;;;;;;;;5030772;28;19936;-81
2023/04/02 01:12:47;;;;;;;;;;;;;;;;;;5031972;28;19929;-81
2023/04/02 01:15:20;;;;;;;;;;;;;;;;;;5032304;28;19932;-80
2023/04/02 01:17:48;;;;;;;;;;;;;;;;;;5038792;28;19925;-81
2023/04/02 01:20:16;;;;;;;;;;;;;;;;;;5031251;28;19932;-81
2023/04/02 01:22:48;;;;;;;;;;;;;;;;;;5030784;28;19937;-80
2023/04/02 01:25:16;;;;;;;;;;;;;;;;;;5028449;28;19941;-81
2023/04/02 01:27:44;;;;;;;;;;;;;;;;;;5030336;28;20310;-80
2023/04/02 01:30:11;;;;;;;;;;;;;;;;;;5047713;28;19925;-81
2023/04/02 01:32:44;;;;;;;;;;;;;;;;;;5030344;28;20293;-80
2023/04/02 01:35:12;;;;;;;;;;;;;;;;;;5029647;28;19925;-80
2023/04/02 01:37:43;;;;;;;;;;;;;;;;;;5030865;28;19932;-80
2023/04/02 01:40:11;;;;;;;;;;;;;;;;;;5045697;28;20397;-80
2023/04/02 01:42:39;;;;;;;;;;;;;;;;;;5030815;28;20409;-80
2023/04/02 01:45:06;;;;;;;;;;;;;;;;;;5031846;28;19925;-80
2023/04/02 01:47:39;;;;;;;;;;;;;;;;;;5029880;28;20413;-80
2023/04/02 01:50:12;;;;;;;;;;;;;;;;;;5046065;28;20287;-80
2023/04/02 01:52:39;;;;;;;;;;;;;;;;;;5030737;28;19929;-81
2023/04/02 01:55:07;;;;;;;;;;;;;;;;;;5030984;28;19932;-81
2023/04/02 01:57:36;;;;;;;;;;;;;;;;;;5040449;28;19925;-81
2023/04/02 02:00:08;;;;;;;;;;;;;;;;;;5029114;28;19929;-80
2023/04/02 02:02:42;;;;;;;;;;;;;;;;;;5015440;28;19932;-81
2023/04/02 02:05:09;;;;;;;;;;;;;;;;;;5030881;28;19936;-80
2023/04/02 02:07:37;;;;;;;;;;;;;;;;;;5038717;28;20382;-80
2023/04/02 02:10:10;;;;;;;;;;;;;;;;;;5042300;28;20421;-81
2023/04/02 02:12:38;;;;;;;;;;;;;;;;;;5041511;28;19925;-81
2023/04/02 02:15:07;;;;;;;;;;;;;;;;;;5031571;28;20390;-80
2023/04/02 02:17:39;;;;;;;;;;;;;;;;;;5030247;28;19933;-81
2023/04/02 02:20:09;;;;;;;;;;;;;;;;;;5031355;28;19925;-80
2023/04/02 02:22:37;;;;;;;;;;;;;;;;;;5031397;28;20282;-80
2023/04/02 02:25:05;;;;;;;;;;;;;;;;;;5045479;28;19929;-81
2023/04/02 02:27:32;;;;;;;;;;;;;;;;;;5029712;28;19940;-80
2023/04/02 02:30:07;;;;;;;;;;;;;;;;;;5030278;28;19925;-81
2023/04/02 02:32:35;;;;;;;;;;;;;;;;;;5029659;28;20277;-80
2023/04/02 02:35:08;;;;;;;;;;;;;;;;;;5030131;28;19925;-80
2023/04/02 02:37:36;;;;;;;;;;;;;;;;;;5030292;28;19936;-82
2023/04/02 02:40:04;;;;;;;;;;;;;;;;;;5033490;28;19929;-80
2023/04/02 02:42:32;;;;;;;;;;;;;;;;;;5035431;28;19929;-80
2023/04/02 02:45:00;;;;;;;;;;;;;;;;;;5035339;28;20377;-81
2023/04/02 02:47:27;;;;;;;;;;;;;;;;;;5035539;28;19932;-80
2023/04/02 02:49:56;;;;;;;;;;;;;;;;;;5034650;28;19936;-80
2023/04/02 02:52:24;;;;;;;;;;;;;;;;;;5016445;28;20301;-80
2023/04/02 02:55:01;;;;;;;;;;;;;;;;;;5032836;28;19925;-80
2023/04/02 02:57:39;;;;;;;;;;;;;;;;;;5032837;28;19933;-81
2023/04/02 03:00:08;;;;;;;;;;;;;;;;;;5049223;28;20271;-81
2023/04/02 03:02:36;;;;;;;;;;;;;;;;;;5048722;28;20011;-81
2023/04/02 03:05:06;;;;;;;;;;;;;;;;;;5033089;28;19925;-81
2023/04/02 03:07:34;;;;;;;;;;;;;;;;;;5049859;28;20401;-80
2023/04/02 03:10:02;;;;;;;;;;;;;;;;;;5033081;28;19925;-81
2023/04/02 03:12:30;;;;;;;;;;;;;;;;;;5032905;28;19932;-80
2023/04/02 03:15:03;;;;;;;;;;;;;;;;;;5032189;28;20401;-80
2023/04/02 03:17:31;;;;;;;;;;;;;;;;;;5033503;28;19926;-80
2023/04/02 03:20:05;;;;;;;;;;;;;;;;;;5033030;28;19925;-81
2023/04/02 03:22:36;;;;;;;;;;;;;;;;;;5033642;28;19940;-80
2023/04/02 03:25:03;;;;;;;;;;;;;;;;;;5046769;28;20283;-80
2023/04/02 03:27:31;;;;;;;;;;;;;;;;;;5039545;28;19948;-81
2023/04/02 03:30:04;;;;;;;;;;;;;;;;;;5049123;28;19937;-82
2023/04/02 03:32:33;;;;;;;;;;;;;;;;;;5033337;28;19925;-81
2023/04/02 03:35:01;;;;;;;;;;;;;;;;;;5032429;28;19936;-81
2023/04/02 03:37:33;;;;;;;;;;;;;;;;;;5042895;28;19932;-81
2023/04/02 03:40:07;;;;;;;;;;;;;;;;;;5033422;28;19980;-81
2023/04/02 03:42:39;;;;;;;;;;;;;;;;;;5031903;28;19929;-80
2023/04/02 03:45:07;;;;;;;;;;;;;;;;;;5031496;28;19957;-82
2023/04/02 03:47:35;;;;;;;;;;;;;;;;;;5032880;28;19924;-80
2023/04/02 03:50:08;;;;;;;;;;;;;;;;;;5031915;28;19929;-81
2023/04/02 03:52:40;;;;;;;;;;;;;;;;;;5042132;28;19933;-81
2023/04/02 03:55:14;;;;;;;;;;;;;;;;;;5031858;28;19932;-81
2023/04/02 03:57:43;;;;;;;;;;;;;;;;;;5032595;28;20275;-80
2023/04/02 04:00:12;;;;;;;;;;;;;;;;;;5032846;28;19925;-81
2023/04/02 04:02:42;;;;;;;;;;;;;;;;;;5033334;28;19932;-80
2023/04/02 04:05:10;;;;;;;;;;;;;;;;;;5042147;28;19936;-81
2023/04/02 04:07:37;;;;;;;;;;;;;;;;;;5016338;28;20086;-80
2023/04/02 04:10:05;;;;;;;;;;;;;;;;;;5031867;28;19932;-81
2023/04/02 04:12:32;;;;;;;;;;;;;;;;;;5047016;28;19925;-80
2023/04/02 04:15:01;;;;;;;;;;;;;;;;;;5032528;28;19932;-80
2023/04/02 04:17:33;;;;;;;;;;;;;;;;;;5031389;28;19932;-81
2023/04/02 04:20:06;;;;;;;;;;;;;;;;;;5029909;28;19932;-80
2023/04/02 04:22:34;;;;;;;;;;;;;;;;;;5032067;28;20675;-80
2023/04/02 04:25:16;;;;;;;;;;;;;;;;;;5042093;28;19944;-80
2023/04/02 04:27:44;;;;;;;;;;;;;;;;;;5032466;28;19926;-81
2023/04/02 04:30:12;;;;;;;;;;;;;;;;;;5032188;28;20255;-80
2023/04/02 04:32:48;;;;;;;;;;;;;;;;;;5030052;28;19925;-81
2023/04/02 04:35:21;;;;;;;;;;;;;;;;;;5030399;28;20294;-80
2023/04/02 04:37:57;;;;;;;;;;;;;;;;;;5040308;28;19925;-80
2023/04/02 04:40:30;;;;;;;;;;;;;;;;;;5031347;28;20388;-81
2023/04/02 04:42:59;;;;;;;;;;;;;;;;;;5032006;28;20385;-81
2023/04/02 04:45:26;;;;;;;;;;;;;;;;;;5031844;28;19936;-81
2023/04/02 04:47:59;;;;;;;;;;;;;;;;;;5047644;28;19925;-80
2023/04/02 04:50:27;;;;;;;;;;;;;;;;;;5031866;28;19929;-80
2023/04/02 04:52:55;;;;;;;;;;;;;;;;;;5031858;28;19929;-80
2023/04/02 04:55:23;;;;;;;;;;;;;;;;;;5031886;28;19932;-81
2023/04/02 04:57:58;;;;;;;;;;;;;;;;;;5040253;28;20333;-80
2023/04/02 05:00:26;;;;;;;;;;;;;;;;;;5031911;28;19928;-80
2023/04/02 05:02:55;;;;;;;;;;;;;;;;;;5028746;28;20289;-80
2023/04/02 05:05:28;;;;;;;;;;;;;;;;;;5030778;28;19925;-80
2023/04/02 05:07:55;;;;;;;;;;;;;;;;;;5026592;28;19936;-81
2023/04/02 05:10:28;;;;;;;;;;;;;;;;;;5037856;28;19940;-81
2023/04/02 05:12:56;;;;;;;;;;;;;;;;;;5030945;28;19932;-81
2023/04/02 05:15:29;;;;;;;;;;;;;;;;;;5031062;28;20464;-81
2023/04/02 05:17:58;;;;;;;;;;;;;;;;;;5026741;28;19929;-81
2023/04/02 05:20:28;;;;;;;;;;;;;;;;;;5046667;28;19936;-81
2023/04/02 05:22:57;;;;;;;;;;;;;;;;;;5036273;28;19938;-80
2023/04/02 05:25:25;;;;;;;;;;;;;;;;;;5028507;28;19929;-80
2023/04/02 05:27:53;;;;;;;;;;;;;;;;;;5030194;28;19932;-81
2023/04/02 05:30:21;;;;;;;;;;;;;;;;;;5031007;28;20266;-81
2023/04/02 05:32:49;;;;;;;;;;;;;;;;;;5029593;28;19929;-80
2023/04/02 05:35:22;;;;;;;;;;;;;;;;;;5030401;28;19929;-81
2023/04/02 05:37:50;;;;;;;;;;;;;;;;;;5031036;28;20405;-81
2023/04/02 05:40:17;;;;;;;;;;;;;;;;;;5030373;28;19929;-81
2023/04/02 05:42:45;;;;;;;;;;;;;;;;;;5045695;28;19940;-80
2023/04/02 05:45:13;;;;;;;;;;;;;;;;;;5027726;28;19925;-81
2023/04/02 05:47:42;;;;;;;;;;;;;;;;;;5029306;28;19925;-81
2023/04/02 05:50:14;;;;;;;;;;;;;;;;;;5029674;28;19929;-80
2023/04/02 05:52:45;;;;;;;;;;;;;;;;;;5029635;28;19936;-81
2023/04/02 05:55:13;;;;;;;;;;;;;;;;;;5014571;28;19936;-81
2023/04/02 05:57:42;;;;;;;;;;;;;;;;;;5030486;28;19925;-80
2023/04/02 06:00:10;;;;;;;;;;;;;;;;;;5030174;28;19925;-80
2023/04/02 06:02:46;;;;;;;;;;;;;;;;;;5029698;28;19925;-80
2023/04/02 06:05:19;;;;;;;;;;;;;;;;;;5028370;28;20024;-80
2023/04/02 06:07:52;;;;;;;;;;;;;;;;;;5046291;28;19925;-80
2023/04/02 06:10:21;;;;;;;;;;;;;;;;;;5030503;28;19925;-81
2023/04/02 06:12:49;;;;;;;;;;;;;;;;;;5046466;28;20283;-81
2023/04/02 06:15:19;;;;;;;;;;;;;;;;;;5029898;28;19933;-80
2023/04/02 06:17:48;;;;;;;;;;;;;;;;;;5046247;28;20300;-80
2023/04/02 06:20:16;;;;;;;;;;;;;;;;;;5045718;28;19925;-80
2023/04/02 06:22:45;;;;;;;;;;;;;;;;;;5029533;28;19932;-81
2023/04/02 06:25:13;;;;;;;;;;;;;;;;;;5030466;28;20293;-80
2023/04/02 06:27:41;;;;;;;;;;;;;;;;;;5030372;28;20277;-80
2023/04/02 06:30:18;;;;;;;;;;;;;;;;;;5045058;28;19925;-80
2023/04/02 06:32:49;;;;;;;;;;;;;;;;;;5046640;28;19925;-80
2023/04/02 06:35:17;;;;;;;;;;;;;;;;;;5028450;28;19937;-80
2023/04/02 06:37:54;;;;;;;;;;;;;;;;;;5030240;28;19925;-81
2023/04/02 06:40:25;;;;;;;;;;;;;;;;;;5028544;28;19929;-81
2023/04/02 06:42:58;;;;;;;;;;;;;;;;;;5029743;28;19929;-81
2023/04/02 06:45:51;;;;;;;;;;;;;;;;;;5025486;28;19936;-80
2023/04/02 06:48:33;;;;;;;;;;;;;;;;;;5044333;28;19936;-81
2023/04/02 06:51:04;;;;;;;;;;;;;;;;;;5028068;28;19932;-80
2023/04/02 06:53:31;;;;;;;;;;;;;;;;;;5029576;28;19925;-80
2023/04/02 06:55:59;;;;;;;;;;;;;;;;;;5029013;28;20452;-80
2023/04/02 06:58:36;;;;;;;;;;;;;;;;;;5036728;28;19925;-79
2023/04/02 07:01:03;;;;;;;;;;;;;;;;;;5046194;28;20393;-81
2023/04/02 07:03:48;;;;;;;;;;;;;;;;;;5028407;28;19940;-80
2023/04/02 07:06:36;;;;;;;;;;;;;;;;;;5026901;28;19929;-80
2023/04/02 07:09:10;;;;;;;;;;;;;;;;;;5037296;28;19931;-79
2023/04/02 07:11:40;;;;;;;;;;;;;;;;;;5044732;28;19932;-79
2023/04/02 07:14:08;;;;;;;;;;;;;;;;;;5030853;28;19925;-79
2023/04/02 07:16:36;;;;;;;;;;;;;;;;;;5030180;28;19929;-79
2023/04/02 07:19:09;;;;;;;;;;;;;;;;;;5027971;28;19952;-78
2023/04/02 07:21:37;;;;;;;;;;;;;;;;;;5028849;28;19926;-79
2023/04/02 07:24:05;;;;;;;;;;;;;;;;;;5046182;28;19925;-79
2023/04/02 07:26:33;;;;;;;;;;;;;;;;;;5046013;28;19933;-79
2023/04/02 07:29:05;;;;;;;;;;;;;;;;;;5032025;28;19925;-79
2023/04/02 07:31:33;;;;;;;;;;;;;;;;;;5034588;28;20792;-79
2023/04/02 07:34:00;;;;;;;;;;;;;;;;;;5031521;28;19932;-80
2023/04/02 07:36:28;;;;;;;;;;;;;;;;;;5032493;28;20796;-80
2023/04/02 07:38:56;;;;;;;;;;;;;;;;;;5031798;28;19933;-79
2023/04/02 07:41:28;;;;;;;;;;;;;;;;;;5032877;28;19944;-78
2023/04/02 07:43:56;;;;;;;;;;;;;;;;;;4990565;28;19940;-80
2023/04/02 07:46:24;;;;;;;;;;;;;;;;;;5034915;28;19925;-79
2023/04/02 07:48:52;;;;;;;;;;;;;;;;;;5014793;28;20440;-80
2023/04/02 07:51:19;;;;;;;;;;;;;;;;;;5010676;28;20318;-82
2023/04/02 07:53:54;;;;;;;;;;;;;;;;;;5022456;28;19971;-81
2023/04/02 07:56:22;;;;;;;;;;;;;;;;;;5020559;28;19940;-80
2023/04/02 07:58:49;;;;;;;;;;;;;;;;;;5010527;28;19926;-81
2023/04/02 08:01:17;;;;;;;;;;;;;;;;;;5033362;28;19925;-80
2023/04/02 08:03:45;;;;;;;;;;;;;;;;;;5011185;28;19933;-79
2023/04/02 08:06:17;;;;;;;;;;;;;;;;;;5008226;28;19933;-80
2023/04/02 08:08:50;;;;;;;;;;;;;;;;;;5009969;28;20794;-80
2023/04/02 08:11:18;;;;;;;;;;;;;;;;;;5019226;28;19925;-79
2023/04/02 08:13:47;;;;;;;;;;;;;;;;;;5014811;28;19955;-79
2023/04/02 08:16:19;;;;;;;;;;;;;;;;;;5015374;28;19929;-79
2023/04/02 08:18:47;;;;;;;;;;;;;;;;;;5008317;28;20317;-79
2023/04/02 08:21:19;;;;;;;;;;;;;;;;;;5016050;28;19933;-79
2023/04/02 08:23:47;;;;;;;;;;;;;;;;;;5024571;28;19973;-79
2023/04/02 08:26:15;;;;;;;;;;;;;;;;;;5008182;28;19932;-80
2023/04/02 08:28:47;;;;;;;;;;;;;;;;;;5004874;28;19944;-80
2023/04/02 08:31:15;;;;;;;;;;;;;;;;;;5011065;28;21459;-80
2023/04/02 08:33:43;;;;;;;;;;;;;;;;;;5010635;28;19936;-80
2023/04/02 08:36:11;;;;;;;;;;;;;;;;;;5007027;28;20385;-80
2023/04/02 08:38:38;;;;;;;;;;;;;;;;;;5005911;28;20619;-80
2023/04/02 08:41:06;;;;;;;;;;;;;;;;;;5007200;28;19933;-80
2023/04/02 08:43:39;;;;;;;;;;;;;;;;;;4987623;28;19940;-79
2023/04/02 08:46:07;;;;;;;;;;;;;;;;;;5005660;28;20318;-80
2023/04/02 08:48:35;;;;;;;;;;;;;;;;;;5023223;28;19933;-80
2023/04/02 08:51:07;;;;;;;;;;;;;;;;;;5019236;28;19936;-79
2023/04/02 08:53:35;;;;;;;;;;;;;;;;;;5020071;28;19933;-80
2023/04/02 08:56:04;;;;;;;;;;;;;;;;;;5025819;28;19940;-80
2023/04/02 08:58:31;;;;;;;;;;;;;;;;;;5014654;28;20444;-79
2023/04/02 09:01:04;;;;;;;;;;;;;;;;;;5014594;28;20868;-80
2023/04/02 09:03:36;;;;;;;;;;;;;;;;;;5009910;28;19929;-80
2023/04/02 09:06:04;;;;;;;;;;;;;;;;;;5014478;28;19933;-80
2023/04/02 09:08:32;;;;;;;;;;;;;;;;;;5003113;28;20479;-81
2023/04/02 09:10:59;;;;;;;;;;;;;;;;;;5007845;28;19932;-81
2023/04/02 09:13:32;;;;;;;;;;;;;;;;;;5010864;28;19944;-80
2023/04/02 09:16:04;;;;;;;;;;;;;;;;;;5003565;28;21202;-79
2023/04/02 09:18:32;;;;;;;;;;;;;;;;;;5007341;28;19933;-79
2023/04/02 09:21:05;;;;;;;;;;;;;;;;;;5008605;28;19929;-80
2023/04/02 09:23:33;;;;;;;;;;;;;;;;;;5007455;28;19933;-81
2023/04/02 09:26:06;;;;;;;;;;;;;;;;;;5006040;28;19944;-80
2023/04/02 09:28:33;;;;;;;;;;;;;;;;;;5009206;28;19929;-79
2023/04/02 09:31:01;;;;;;;;;;;;;;;;;;5009231;28;20295;-78
2023/04/02 09:33:29;;;;;;;;;;;;;;;;;;5014174;28;19947;-81
2023/04/02 09:35:57;;;;;;;;;;;;;;;;;;5004023;28;19933;-79
2023/04/02 09:38:31;;;;;;;;;;;;;;;;;;5006675;28;21338;-79
2023/04/02 09:40:59;;;;;;;;;;;;;;;;;;5009292;28;19933;-80
2023/04/02 09:43:26;;;;;;;;;;;;;;;;;;4982375;28;19933;-80
2023/04/02 09:45:54;;;;;;;;;;;;;;;;;;5019411;28;19932;-80
2023/04/02 09:48:22;;;;;;;;;;;;;;;;;;5025894;28;19936;-83
2023/04/02 09:50:49;;;;;;;;;;;;;;;;;;5028686;28;20263;-81
2023/04/02 09:53:17;;;;;;;;;;;;;;;;;;5027736;28;19929;-80
2023/04/02 09:55:49;;;;;;;;;;;;;;;;;;5028796;28;19925;-80
2023/04/02 09:58:22;;;;;;;;;;;;;;;;;;5030316;28;19944;-79
2023/04/02 10:00:50;;;;;;;;;;;;;;;;;;5039386;28;20313;-80
2023/04/02 10:03:22;;;;;;;;;;;;;;;;;;5029431;28;20297;-80
2023/04/02 10:05:55;;;;;;;;;;;;;;;;;;5030261;28;20266;-80
2023/04/02 10:08:22;;;;;;;;;;;;;;;;;;5037771;28;19930;-79
2023/04/02 10:10:50;;;;;;;;;;;;;;;;;;5029705;28;19932;-80
2023/04/02 10:13:18;;;;;;;;;;;;;;;;;;5021332;28;19940;-80
2023/04/02 10:15:45;;;;;;;;;;;;;;;;;;5044456;28;19925;-80
2023/04/02 10:18:18;;;;;;;;;;;;;;;;;;5032277;28;20294;-81
2023/04/02 10:20:45;;;;;;;;;;;;;;;;;;5044571;28;19925;-82
2023/04/02 10:23:13;;;;;;;;;;;;;;;;;;5035662;28;19929;-81
2023/04/02 10:25:40;;;;;;;;;;;;;;;;;;5029279;28;19925;-80
2023/04/02 10:28:08;;;;;;;;;;;;;;;;;;5026536;28;19929;-80
2023/04/02 10:30:41;;;;;;;;;;;;;;;;;;5031340;28;20396;-79
2023/04/02 10:33:13;;;;;;;;;;;;;;;;;;5030950;28;20440;-80
2023/04/02 10:35:41;;;;;;;;;;;;;;;;;;5029992;28;20353;-79
2023/04/02 10:38:09;;;;;;;;;;;;;;;;;;5047242;28;19932;-80
2023/04/02 10:40:37;;;;;;;;;;;;;;;;;;5028977;28;19925;-79
2023/04/02 10:43:05;;;;;;;;;;;;;;;;;;5029805;28;19933;-79
2023/04/02 10:45:33;;;;;;;;;;;;;;;;;;5041370;28;19936;-80
2023/04/02 10:48:00;;;;;;;;;;;;;;;;;;5032016;28;19933;-80
2023/04/02 10:50:29;;;;;;;;;;;;;;;;;;5030820;28;19929;-80
2023/04/02 10:53:02;;;;;;;;;;;;;;;;;;5044331;28;19932;-80
2023/04/02 10:55:38;;;;;;;;;;;;;;;;;;5046599;28;19940;-81
2023/04/02 10:58:06;;;;;;;;;;;;;;;;;;5026079;28;20609;-80
2023/04/02 11:00:33;;;;;;;;;;;;;;;;;;5029162;28;19960;-79
2023/04/02 11:03:01;;;;;;;;;;;;;;;;;;5047319;28;19936;-80
2023/04/02 11:05:29;;;;;;;;;;;;;;;;;;5034638;28;19925;-81
2023/04/02 11:07:56;;;;;;;;;;;;;;;;;;5034885;28;19929;-80
2023/04/02 11:10:24;;;;;;;;;;;;;;;;;;5033938;28;20481;-81
2023/04/02 11:12:51;;;;;;;;;;;;;;;;;;5035007;28;19925;-80
2023/04/02 11:15:19;;;;;;;;;;;;;;;;;;5032692;28;19936;-80
2023/04/02 11:17:51;;;;;;;;;;;;;;;;;;5030498;28;19925;-82
2023/04/02 11:20:19;;;;;;;;;;;;;;;;;;5031910;28;19934;-82
2023/04/02 11:22:46;;;;;;;;;;;;;;;;;;5032685;28;19932;-79
2023/04/02 11:25:15;;;;;;;;;;;;;;;;;;4984824;28;19933;-82
2023/04/02 11:27:43;;;;;;;;;;;;;;;;;;5015162;28;19933;-81
2023/04/02 11:30:12;;;;;;;;;;;;;;;;;;5010029;28;19940;-80
2023/04/02 11:32:41;;;;;;;;;;;;;;;;;;5011070;28;19925;-80
2023/04/02 11:35:08;;;;;;;;;;;;;;;;;;5007328;28;20560;-79
2023/04/02 11:37:36;;;;;;;;;;;;;;;;;;5012061;28;20286;-80
2023/04/02 11:40:05;;;;;;;;;;;;;;;;;;5005616;28;19933;-80
2023/04/02 11:42:32;;;;;;;;;;;;;;;;;;5005693;28;21301;-81
2023/04/02 11:45:00;;;;;;;;;;;;;;;;;;5007712;28;19933;-79
2023/04/02 11:47:28;;;;;;;;;;;;;;;;;;5008923;28;19933;-83
2023/04/02 11:49:56;;;;;;;;;;;;;;;;;;5007849;28;19933;-79
2023/04/02 11:52:23;;;;;;;;;;;;;;;;;;5010808;28;21277;-84
2023/04/02 11:54:51;;;;;;;;;;;;;;;;;;5024342;28;20300;-81
2023/04/02 11:57:18;;;;;;;;;;;;;;;;;;5012390;28;20540;-82
2023/04/02 11:59:46;;;;;;;;;;;;;;;;;;5010824;28;19940;-81
2023/04/02 12:02:13;;;;;;;;;;;;;;;;;;5005581;28;19933;-83
2023/04/02 12:04:41;;;;;;;;;;;;;;;;;;5011506;28;19933;-82
2023/04/02 12:07:11;;;;;;;;;;;;;;;;;;5027859;28;19941;-82
2023/04/02 12:09:40;;;;;;;;;;;;;;;;;;5010309;28;19941;-83
2023/04/02 12:12:12;;;;;;;;;;;;;;;;;;5026153;28;19940;-81
2023/04/02 12:14:45;;;;;;;;;;;;;;;;;;5014230;28;19933;-82
2023/04/02 12:17:13;;;;;;;;;;;;;;;;;;5010949;28;19940;-85
2023/04/02 12:19:40;;;;;;;;;;;;;;;;;;5023094;28;19933;-79
2023/04/02 12:22:13;;;;;;;;;;;;;;;;;;5009803;28;19937;-86
2023/04/02 12:24:41;;;;;;;;;;;;;;;;;;4979523;28;19933;-81
2023/04/02 12:27:14;;;;;;;;;;;;;;;;;;5023524;28;19933;-80
2023/04/02 12:29:46;;;;;;;;;;;;;;;;;;5029044;28;20397;-79
2023/04/02 12:32:14;;;;;;;;;;;;;;;;;;5016049;28;19933;-81
2023/04/02 12:34:46;;;;;;;;;;;;;;;;;;5006573;28;19979;-82
2023/04/02 12:37:14;;;;;;;;;;;;;;;;;;5010174;28;19933;-82
2023/04/02 12:39:41;;;;;;;;;;;;;;;;;;5022849;28;19937;-80
2023/04/02 12:42:09;;;;;;;;;;;;;;;;;;5023149;28;19944;-81
2023/04/02 12:44:36;;;;;;;;;;;;;;;;;;5027254;28;19933;-81
2023/04/02 12:47:04;;;;;;;;;;;;;;;;;;5008466;28;19933;-81
2023/04/02 12:49:32;;;;;;;;;;;;;;;;;;5008742;28;19925;-83
2023/04/02 12:52:04;;;;;;;;;;;;;;;;;;5016082;28;20370;-80
2023/04/02 12:54:37;;;;;;;;;;;;;;;;;;5023874;28;20386;-81
2023/04/02 12:57:04;;;;;;;;;;;;;;;;;;5004931;28;19940;-81
2023/04/02 12:59:33;;;;;;;;;;;;;;;;;;5017686;28;21222;-80
2023/04/02 13:02:01;;;;;;;;;;;;;;;;;;5011652;28;19940;-81
2023/04/02 13:04:28;;;;;;;;;;;;;;;;;;5014111;28;19944;-82
2023/04/02 13:06:56;;;;;;;;;;;;;;;;;;5015084;28;19925;-81
2023/04/02 13:09:23;;;;;;;;;;;;;;;;;;5012029;28;19925;-79
2023/04/02 13:11:51;;;;;;;;;;;;;;;;;;5008080;28;19933;-81
2023/04/02 13:14:18;;;;;;;;;;;;;;;;;;5008919;28;19940;-80
2023/04/02 13:16:46;;;;;;;;;;;;;;;;;;5002690;28;19933;-80
2023/04/02 13:19:13;;;;;;;;;;;;;;;;;;5007061;28;20362;-80
2023/04/02 13:21:41;;;;;;;;;;;;;;;;;;5002506;28;20714;-79
2023/04/02 13:24:08;;;;;;;;;;;;;;;;;;4982444;28;19937;-80
2023/04/02 13:26:42;;;;;;;;;;;;;;;;;;5005927;28;19940;-80
2023/04/02 13:29:14;;;;;;;;;;;;;;;;;;5011863;28;19933;-81
2023/04/02 13:31:47;;;;;;;;;;;;;;;;;;5006626;28;20479;-81
2023/04/02 13:34:14;;;;;;;;;;;;;;;;;;5006747;28;19963;-80
2023/04/02 13:36:43;;;;;;;;;;;;;;;;;;5006715;28;19960;-80
2023/04/02 13:39:11;;;;;;;;;;;;;;;;;;5002581;28;19933;-81
2023/04/02 13:41:38;;;;;;;;;;;;;;;;;;5020020;28;19933;-80
2023/04/02 13:44:09;;;;;;;;;;;;;;;;;;5009770;28;19940;-81
2023/04/02 13:46:37;;;;;;;;;;;;;;;;;;4998131;28;19933;-79
2023/04/02 13:49:04;;;;;;;;;;;;;;;;;;4999844;28;19940;-82
2023/04/02 13:51:32;;;;;;;;;;;;;;;;;;5002349;28;19933;-80
2023/04/02 13:54:02;;;;;;;;;;;;;;;;;;5004018;28;20546;-81
2023/04/02 13:56:36;;;;;;;;;;;;;;;;;;5004236;28;19940;-82
2023/04/02 13:59:03;;;;;;;;;;;;;;;;;;5004115;28;19939;-81
2023/04/02 14:01:31;;;;;;;;;;;;;;;;;;5022534;28;19925;-82
2023/04/02 14:03:58;;;;;;;;;;;;;;;;;;5001184;28;19933;-80
2023/04/02 14:06:25;;;;;;;;;;;;;;;;;;5005144;28;20097;-81
2023/04/02 14:08:53;;;;;;;;;;;;;;;;;;5022352;28;19948;-82
2023/04/02 14:11:21;;;;;;;;;;;;;;;;;;5020617;28;20534;-81
2023/04/02 14:13:53;;;;;;;;;;;;;;;;;;5012159;28;20377;-82
2023/04/02 14:16:21;;;;;;;;;;;;;;;;;;5001439;28;20305;-80
2023/04/02 14:18:48;;;;;;;;;;;;;;;;;;5001614;28;19954;-81
2023/04/02 14:21:17;;;;;;;;;;;;;;;;;;5016883;28;20807;-80
2023/04/02 14:23:50;;;;;;;;;;;;;;;;;;5006933;28;20005;-80
2023/04/02 14:26:22;;;;;;;;;;;;;;;;;;5006746;28;19933;-81
2023/04/02 14:28:50;;;;;;;;;;;;;;;;;;5004899;28;19933;-81
2023/04/02 14:31:18;;;;;;;;;;;;;;;;;;5002159;28;19933;-83
2023/04/02 14:33:45;;;;;;;;;;;;;;;;;;5005636;28;20521;-82
2023/04/02 14:36:13;;;;;;;;;;;;;;;;;;5020839;28;20313;-82
2023/04/02 14:38:42;;;;;;;;;;;;;;;;;;5008516;28;19933;-81
2023/04/02 14:41:09;;;;;;;;;;;;;;;;;;5014100;28;20978;-80
2023/04/02 14:43:37;;;;;;;;;;;;;;;;;;5021778;28;19925;-82
2023/04/02 14:46:04;;;;;;;;;;;;;;;;;;5020258;28;19933;-81
2023/04/02 14:48:37;;;;;;;;;;;;;;;;;;5000294;28;19940;-81
2023/04/02 14:51:10;;;;;;;;;;;;;;;;;;5001387;28;19929;-80
2023/04/02 14:53:37;;;;;;;;;;;;;;;;;;5002411;28;19933;-84
2023/04/02 14:56:05;;;;;;;;;;;;;;;;;;5001475;28;19944;-81
2023/04/02 14:58:33;;;;;;;;;;;;;;;;;;5008143;28;20409;-82
2023/04/02 15:01:00;;;;;;;;;;;;;;;;;;5008765;28;19934;-81
2023/04/02 15:03:28;;;;;;;;;;;;;;;;;;5007270;28;19933;-80
2023/04/02 15:05:56;;;;;;;;;;;;;;;;;;5002144;28;20385;-81
2023/04/02 15:08:23;;;;;;;;;;;;;;;;;;5003884;28;19933;-81
2023/04/02 15:10:56;;;;;;;;;;;;;;;;;;5021008;28;19936;-81
2023/04/02 15:13:28;;;;;;;;;;;;;;;;;;5000603;28;19963;-81
2023/04/02 15:15:56;;;;;;;;;;;;;;;;;;5000137;28;19987;-81
2023/04/02 15:18:28;;;;;;;;;;;;;;;;;;5003655;28;19933;-84
2023/04/02 15:21:01;;;;;;;;;;;;;;;;;;5011251;28;19933;-81
2023/04/02 15:23:29;;;;;;;;;;;;;;;;;;5007312;28;19933;-81
2023/04/02 15:25:56;;;;;;;;;;;;;;;;;;4980807;28;20417;-80
2023/04/02 15:28:29;;;;;;;;;;;;;;;;;;5004973;28;19933;-81
2023/04/02 15:30:58;;;;;;;;;;;;;;;;;;5006277;28;19933;-82
2023/04/02 15:33:26;;;;;;;;;;;;;;;;;;5008905;28;20401;-81
2023/04/02 15:35:53;;;;;;;;;;;;;;;;;;5004640;28;19928;-81
2023/04/02 15:38:21;;;;;;;;;;;;;;;;;;5009636;28;19929;-82
2023/04/02 15:40:49;;;;;;;;;;;;;;;;;;5013898;28;19936;-83
2023/04/02 15:43:16;;;;;;;;;;;;;;;;;;5004887;28;19933;-81
2023/04/02 15:45:49;;;;;;;;;;;;;;;;;;5012049;28;19933;-80
2023/04/02 15:48:22;;;;;;;;;;;;;;;;;;5003716;28;19944;-80
2023/04/02 15:50:49;;;;;;;;;;;;;;;;;;5000404;28;19934;-81
2023/04/02 15:53:22;;;;;;;;;;;;;;;;;;5021133;28;19943;-82
2023/04/02 15:55:49;;;;;;;;;;;;;;;;;;5003994;28;19944;-82
2023/04/02 15:58:17;;;;;;;;;;;;;;;;;;5003515;28;19944;-81
2023/04/02 16:00:49;;;;;;;;;;;;;;;;;;5002860;28;20626;-82
2023/04/02 16:03:22;;;;;;;;;;;;;;;;;;5001388;28;19933;-82
2023/04/02 16:05:50;;;;;;;;;;;;;;;;;;5004522;28;20277;-82
2023/04/02 16:08:17;;;;;;;;;;;;;;;;;;5000629;28;19933;-83
2023/04/02 16:10:45;;;;;;;;;;;;;;;;;;5008931;28;19944;-82
2023/04/02 16:13:12;;;;;;;;;;;;;;;;;;5009023;28;20626;-82
2023/04/02 16:15:40;;;;;;;;;;;;;;;;;;5009364;28;19933;-81
2023/04/02 16:18:07;;;;;;;;;;;;;;;;;;5007924;28;19925;-82
2023/04/02 16:20:35;;;;;;;;;;;;;;;;;;5005376;28;19933;-83
2023/04/02 16:23:03;;;;;;;;;;;;;;;;;;5004229;28;19929;-80
2023/04/02 16:25:30;;;;;;;;;;;;;;;;;;4974973;28;19937;-82
2023/04/02 16:27:58;;;;;;;;;;;;;;;;;;5010321;28;20393;-82
2023/04/02 16:30:25;;;;;;;;;;;;;;;;;;5009328;28;19937;-82
2023/04/02 16:32:53;;;;;;;;;;;;;;;;;;5024753;28;19940;-82
2023/04/02 16:35:20;;;;;;;;;;;;;;;;;;5004691;28;20475;-82
2023/04/02 16:37:53;;;;;;;;;;;;;;;;;;5012584;28;19940;-84
2023/04/02 16:40:20;;;;;;;;;;;;;;;;;;5008778;28;19933;-83
2023/04/02 16:42:48;;;;;;;;;;;;;;;;;;5010253;28;20380;-84
2023/04/02 16:45:16;;;;;;;;;;;;;;;;;;5003692;28;19940;-82
2023/04/02 16:47:44;;;;;;;;;;;;;;;;;;5012219;28;19933;-83
2023/04/02 16:50:11;;;;;;;;;;;;;;;;;;5008116;28;19991;-84
2023/04/02 16:52:39;;;;;;;;;;;;;;;;;;5008419;28;19933;-83
2023/04/02 16:55:06;;;;;;;;;;;;;;;;;;5008146;28;19936;-88
2023/04/02 16:57:34;;;;;;;;;;;;;;;;;;5020197;28;19932;-84
2023/04/02 17:00:01;;;;;;;;;;;;;;;;;;5002987;28;19932;-85